Time;durP1;ratioP1;P1;durP2;ratioP2;P2;SDS_P1;SDS_P2;PMS_P1;PMS_P2;Temp;Humidity;BMP_temperature;BMP_pressure;BME280_temperature;BME280_humidity;BME280_pressure;Samples;Min_cycle;Max_cycle;Signal;HPM_P1;HPM_P2
2021/04/29 00:02:44;;;;;;;1.33;0.77;;;15.70;99.90;;;;;;20703134;28;20664;-75
2021/04/29 00:12:47;;;;;;;0.73;0.60;;;15.70;99.90;;;;;;20702593;28;20223;-74
2021/04/29 00:22:50;;;;;;;0.30;0.30;;;15.60;99.90;;;;;;20700314;28;20203;-72
2021/04/29 00:32:53;;;;;;;0.73;0.73;;;15.50;99.90;;;;;;20698791;28;20233;-75
2021/04/29 00:42:57;;;;;;;1.30;1.07;;;15.40;99.90;;;;;;20698076;28;20195;-75
2021/04/29 00:52:59;;;;;;;0.70;0.33;;;15.50;99.90;;;;;;20699312;28;20223;-74
2021/04/29 01:03:09;;;;;;;1.13;1.03;;;15.40;99.90;;;;;;20699094;28;20317;-72
2021/04/29 01:13:14;;;;;;;0.50;0.50;;;15.40;99.90;;;;;;20696967;28;20276;-74
2021/04/29 01:23:33;;;;;;;0.33;0.23;;;15.40;99.90;;;;;;20697944;28;20195;-74
2021/04/29 01:33:37;;;;;;;0.77;0.77;;;15.50;99.90;;;;;;20677825;28;20743;-76
2021/04/29 01:43:42;;;;;;;1.10;0.77;;;15.60;99.90;;;;;;20668226;28;20342;-77
2021/04/29 01:53:47;;;;;;;0.20;0.13;;;16.00;99.90;;;;;;20613948;28;20237;-76
2021/04/29 02:03:49;;;;;;;0.67;0.60;;;16.20;99.90;;;;;;20612884;28;20685;-74
2021/04/29 02:13:56;;;;;;;0.20;0.20;;;16.30;99.90;;;;;;20615089;28;20602;-74
2021/04/29 02:23:58;;;;;;;0.67;0.67;;;16.40;99.90;;;;;;20614086;28;20196;-73
2021/04/29 02:34:03;;;;;;;0.83;0.83;;;16.40;99.90;;;;;;20638390;28;20226;-76
2021/04/29 02:44:06;;;;;;;0.37;0.37;;;16.20;99.90;;;;;;20693218;28;20290;-73
2021/04/29 02:54:10;;;;;;;1.33;0.30;;;16.30;99.90;;;;;;20702877;28;20609;-72
2021/04/29 03:04:12;;;;;;;1.20;1.10;;;16.20;99.90;;;;;;20706996;28;20264;-74
2021/04/29 03:14:16;;;;;;;0.30;0.30;;;16.30;99.90;;;;;;20707864;28;20227;-74
2021/04/29 03:24:18;;;;;;;0.80;0.80;;;16.00;99.90;;;;;;20707391;28;20543;-73
2021/04/29 03:34:23;;;;;;;0.20;0.13;;;15.90;99.90;;;;;;20706839;28;20222;-74
2021/04/29 03:44:25;;;;;;;0.33;0.33;;;15.70;99.90;;;;;;20705340;28;20624;-75
2021/04/29 03:54:29;;;;;;;1.37;1.07;;;15.60;99.90;;;;;;20701914;28;20666;-72
2021/04/29 04:04:32;;;;;;;0.50;0.40;;;15.70;99.90;;;;;;20698830;28;20219;-72
2021/04/29 04:14:35;;;;;;;1.13;1.13;;;15.90;99.90;;;;;;20685834;28;20222;-72
2021/04/29 04:24:38;;;;;;;1.20;0.57;;;15.70;99.90;;;;;;20679443;28;20194;-74
2021/04/29 04:34:41;;;;;;;0.73;0.30;;;16.00;99.90;;;;;;20701222;28;20233;-73
2021/04/29 04:44:44;;;;;;;1.13;1.03;;;16.10;99.90;;;;;;20698978;28;20559;-73
2021/04/29 04:54:49;;;;;;;2.40;1.00;;;15.90;99.90;;;;;;20699633;28;20230;-76
2021/04/29 05:04:52;;;;;;;0.63;0.63;;;15.90;99.90;;;;;;20697730;28;20227;-75
2021/04/29 05:14:55;;;;;;;0.30;0.30;;;15.80;99.90;;;;;;20697556;28;20226;-74
2021/04/29 05:24:58;;;;;;;0.67;0.67;;;15.80;99.90;;;;;;20682395;28;20516;-78
2021/04/29 05:35:02;;;;;;;0.30;0.30;;;15.80;99.90;;;;;;20697876;28;20683;-73
2021/04/29 05:45:06;;;;;;;0.60;0.60;;;15.80;99.90;;;;;;20693978;28;20353;-73
2021/04/29 05:55:11;;;;;;;11.90;0.80;;;15.80;99.90;;;;;;20677286;28;20658;-74
2021/04/29 06:05:13;;;;;;;1.07;0.87;;;15.90;99.90;;;;;;20662418;28;20599;-74
2021/04/29 06:15:18;;;;;;;1.63;0.60;;;16.00;99.90;;;;;;20610205;28;20231;-74
2021/04/29 06:25:21;;;;;;;1.70;0.53;;;15.70;99.90;;;;;;20617151;28;20199;-73
2021/04/29 06:35:24;;;;;;;2.27;0.63;;;16.00;99.90;;;;;;20637879;28;20258;-74
2021/04/29 06:45:27;;;;;;;0.97;0.87;;;16.40;99.90;;;;;;20639268;28;20195;-78
2021/04/29 06:55:31;;;;;;;0.50;0.50;;;16.50;99.90;;;;;;20641231;28;20569;-74
2021/04/29 07:05:34;;;;;;;2.00;1.17;;;16.50;99.90;;;;;;20691690;28;20346;-74
2021/04/29 07:15:37;;;;;;;2.23;0.60;;;16.80;99.90;;;;;;20717694;28;20210;-75
2021/04/29 07:25:40;;;;;;;0.20;0.10;;;17.10;99.90;;;;;;20716751;28;20256;-73
2021/04/29 07:35:44;;;;;;;1.27;1.13;;;17.10;99.90;;;;;;20714414;28;20214;-73
2021/04/29 07:45:46;;;;;;;0.37;0.37;;;17.50;99.90;;;;;;20702979;28;20191;-75
2021/04/29 07:55:50;;;;;;;1.60;1.37;;;17.50;99.90;;;;;;20704306;28;20545;-73
2021/04/29 08:05:52;;;;;;;0.40;0.40;;;17.20;99.90;;;;;;20684104;28;20233;-71
2021/04/29 08:15:56;;;;;;;0.93;0.93;;;17.50;99.90;;;;;;20705927;28;20286;-72
2021/04/29 08:25:58;;;;;;;0.20;0.10;;;17.80;99.90;;;;;;20722636;28;20782;-73
2021/04/29 08:36:02;;;;;;;0.60;0.60;;;18.00;99.90;;;;;;20718383;28;20202;-72
2021/04/29 08:46:05;;;;;;;0.70;0.50;;;18.20;99.90;;;;;;20706518;28;20215;-72
2021/04/29 08:56:09;;;;;;;1.57;1.13;;;18.60;99.90;;;;;;20688868;28;20191;-72
2021/04/29 09:06:11;;;;;;;0.23;0.13;;;19.10;99.90;;;;;;20705430;28;20616;-73
2021/04/29 09:16:15;;;;;;;0.80;0.57;;;19.30;99.90;;;;;;20696149;28;20225;-72
2021/04/29 09:26:19;;;;;;;2.73;0.87;;;18.50;99.90;;;;;;20693695;28;20242;-71
2021/04/29 09:36:24;;;;;;;0.20;0.00;;;18.00;99.90;;;;;;20694870;28;20203;-76
2021/04/29 09:46:38;;;;;;;0.20;0.20;;;18.30;99.90;;;;;;20662358;28;20566;-72
2021/04/29 09:56:53;;;;;;;0.97;0.73;;;18.40;99.90;;;;;;20675014;28;20290;-72
2021/04/29 10:06:57;;;;;;;0.80;0.80;;;18.90;99.90;;;;;;20692921;28;20234;-74
2021/04/29 10:17:04;;;;;;;0.40;0.40;;;19.00;99.90;;;;;;20692813;28;20686;-70
2021/04/29 10:27:09;;;;;;;0.77;0.77;;;19.30;99.90;;;;;;20693443;28;20891;-70
2021/04/29 10:37:19;;;;;;;0.77;0.40;;;19.20;99.90;;;;;;20690781;28;20215;-71
2021/04/29 10:47:24;;;;;;;0.27;0.17;;;19.70;99.90;;;;;;20690143;28;20238;-73
2021/04/29 10:57:27;;;;;;;0.57;0.43;;;19.20;99.90;;;;;;20692710;28;20199;-72
2021/04/29 11:07:31;;;;;;;0.50;0.37;;;18.70;99.90;;;;;;20699144;28;20485;-71
2021/04/29 11:17:35;;;;;;;2.60;0.77;;;19.10;99.90;;;;;;20687978;28;20605;-73
2021/04/29 11:27:40;;;;;;;0.27;0.23;;;19.30;99.90;;;;;;20686849;28;20238;-73
2021/04/29 11:37:44;;;;;;;0.50;0.30;;;19.50;99.90;;;;;;20706317;28;20593;-74
2021/04/29 11:47:56;;;;;;;0.60;0.60;;;19.10;99.90;;;;;;20702268;28;20318;-73
2021/04/29 11:58:04;;;;;;;0.30;0.30;;;19.40;99.90;;;;;;20701909;28;20579;-77
2021/04/29 12:08:11;;;;;;;0.20;0.10;;;19.40;99.90;;;;;;20703306;28;20235;-70
2021/04/29 12:18:15;;;;;;;1.13;0.70;;;19.80;99.90;;;;;;20682418;28;20206;-73
2021/04/29 12:28:18;;;;;;;0.47;0.40;;;19.60;99.90;;;;;;20700769;28;20806;-72
2021/04/29 12:38:31;;;;;;;0.87;0.47;;;19.10;99.90;;;;;;20696485;28;20764;-73
2021/04/29 12:48:35;;;;;;;1.03;0.97;;;18.90;99.90;;;;;;20697702;28;20238;-72
2021/04/29 12:58:39;;;;;;;2.83;1.53;;;19.30;99.90;;;;;;20699026;28;20206;-71
2021/04/29 13:08:58;;;;;;;0.57;0.47;;;19.30;99.90;;;;;;20696314;28;20704;-72
2021/04/29 13:19:02;;;;;;;0.43;0.43;;;19.50;99.90;;;;;;20695844;28;20664;-73
2021/04/29 13:29:05;;;;;;;0.53;0.53;;;18.90;99.90;;;;;;20695725;28;20595;-75
2021/04/29 13:39:09;;;;;;;1.03;0.90;;;18.40;99.90;;;;;;20692678;28;20205;-76
2021/04/29 13:49:12;;;;;;;0.40;0.40;;;18.70;99.90;;;;;;20695719;28;20360;-73
2021/04/29 13:59:15;;;;;;;0.23;0.20;;;18.80;99.90;;;;;;20694435;28;20202;-73
2021/04/29 14:09:18;;;;;;;0.97;0.83;;;20.40;99.90;;;;;;20693529;28;20345;-74
2021/04/29 14:19:21;;;;;;;1.17;1.13;;;20.20;99.90;;;;;;20676188;28;20198;-74
2021/04/29 14:29:25;;;;;;;0.43;0.43;;;21.00;99.90;;;;;;20692445;28;20233;-74
2021/04/29 14:39:29;;;;;;;0.50;0.50;;;20.60;99.90;;;;;;20688840;28;20560;-72
2021/04/29 14:49:47;;;;;;;0.40;0.40;;;20.20;99.90;;;;;;20697500;28;20325;-68
2021/04/29 14:59:51;;;;;;;0.40;0.30;;;20.50;99.90;;;;;;20706891;28;20241;-71
2021/04/29 15:09:55;;;;;;;2.47;2.23;;;19.90;99.90;;;;;;20697145;28;20226;-69
2021/04/29 15:19:59;;;;;;;0.60;0.60;;;19.30;99.90;;;;;;20705749;28;20664;-74
2021/04/29 15:30:02;;;;;;;1.33;1.17;;;19.60;99.90;;;;;;20704399;28;20254;-74
2021/04/29 15:40:10;;;;;;;0.47;0.47;;;19.00;99.90;;;;;;20702904;28;20219;-74
2021/04/29 15:50:13;;;;;;;0.30;0.30;;;18.50;99.90;;;;;;20701177;28;20226;-73
2021/04/29 16:00:18;;;;;;;0.40;0.33;;;18.40;99.90;;;;;;20707623;28;20580;-75
2021/04/29 16:10:20;;;;;;;0.70;0.70;;;18.30;99.90;;;;;;20724028;28;20227;-74
2021/04/29 16:20:25;;;;;;;0.30;0.30;;;18.20;99.90;;;;;;20698761;28;20253;-72
2021/04/29 16:30:28;;;;;;;2.43;1.40;;;17.60;99.90;;;;;;20698184;28;20226;-74
2021/04/29 16:40:31;;;;;;;0.63;0.63;;;17.70;99.90;;;;;;20699251;28;20672;-74
2021/04/29 16:50:34;;;;;;;0.40;0.27;;;17.80;99.90;;;;;;20659390;28;20234;-73
2021/04/29 17:00:38;;;;;;;1.00;0.73;;;17.50;99.90;;;;;;20636816;28;20415;-71
2021/04/29 17:10:41;;;;;;;0.47;0.40;;;17.40;99.90;;;;;;20700149;28;20329;-72
2021/04/29 17:20:45;;;;;;;2.53;2.00;;;17.30;99.90;;;;;;20699355;28;20300;-71
2021/04/29 17:30:48;;;;;;;2.17;0.77;;;17.30;99.90;;;;;;20700629;28;20234;-69
2021/04/29 17:40:52;;;;;;;0.70;0.70;;;17.10;99.90;;;;;;20697964;28;20425;-68
2021/04/29 17:50:54;;;;;;;0.97;0.77;;;17.30;99.90;;;;;;20694570;28;20218;-69
2021/04/29 18:00:58;;;;;;;0.57;0.30;;;17.00;99.90;;;;;;20677528;28;20707;-71
2021/04/29 18:11:01;;;;;;;0.73;0.60;;;17.00;99.90;;;;;;20693758;28;20313;-68
2021/04/29 18:21:06;;;;;;;1.03;0.90;;;17.00;99.90;;;;;;20690652;28;20191;-69
2021/04/29 18:31:09;;;;;;;1.13;1.03;;;17.10;99.90;;;;;;20692622;28;20285;-69
2021/04/29 18:41:13;;;;;;;0.33;0.33;;;16.80;99.90;;;;;;20691877;28;20187;-68
2021/04/29 18:51:15;;;;;;;0.20;0.20;;;16.70;99.90;;;;;;20672946;28;20313;-71
2021/04/29 19:01:19;;;;;;;0.63;0.47;;;16.50;99.90;;;;;;20679736;28;20242;-69
2021/04/29 19:11:25;;;;;;;3.10;0.60;;;16.50;99.90;;;;;;20641304;28;20222;-68
2021/04/29 19:21:29;;;;;;;0.60;0.50;;;16.20;99.90;;;;;;20691741;28;21008;-68
2021/04/29 19:31:31;;;;;;;1.10;0.53;;;16.10;99.90;;;;;;20688721;28;20301;-67
2021/04/29 19:41:36;;;;;;;2.27;0.90;;;16.20;99.90;;;;;;20686553;28;20199;-70
2021/04/29 19:51:38;;;;;;;0.33;0.33;;;16.20;99.90;;;;;;20703556;28;20532;-69
2021/04/29 20:01:42;;;;;;;0.40;0.40;;;16.20;99.90;;;;;;20703360;28;20261;-69
2021/04/29 20:11:45;;;;;;;0.47;0.47;;;16.20;99.90;;;;;;20686126;28;20226;-69
2021/04/29 20:21:49;;;;;;;1.47;0.63;;;16.10;99.90;;;;;;20701725;28;20522;-68
2021/04/29 20:31:53;;;;;;;0.83;0.80;;;16.00;99.90;;;;;;20698905;28;20305;-69
2021/04/29 20:41:58;;;;;;;0.20;0.10;;;16.00;99.90;;;;;;20686618;28;20199;-69
2021/04/29 20:52:01;;;;;;;0.73;0.73;;;15.70;99.90;;;;;;20697198;28;20676;-69
2021/04/29 21:02:05;;;;;;;0.20;0.10;;;15.90;99.90;;;;;;20701581;28;20631;-69
2021/04/29 21:12:09;;;;;;;0.20;0.10;;;15.70;99.90;;;;;;20705196;28;20222;-73
2021/04/29 21:22:13;;;;;;;0.90;0.90;;;15.70;99.90;;;;;;20697561;28;20251;-72
2021/04/29 21:32:16;;;;;;;0.30;0.27;;;15.60;99.90;;;;;;20691110;28;20246;-73
2021/04/29 21:42:20;;;;;;;0.27;0.27;;;15.70;99.90;;;;;;20678207;28;20209;-72
2021/04/29 21:52:24;;;;;;;0.20;0.10;;;15.70;99.90;;;;;;20676239;28;20227;-74
2021/04/29 22:02:27;;;;;;;0.30;0.23;;;15.80;99.90;;;;;;20675057;28;20230;-72
2021/04/29 22:12:31;;;;;;;0.30;0.20;;;16.10;99.90;;;;;;20691894;28;20237;-73
2021/04/29 22:22:35;;;;;;;0.50;0.50;;;16.00;99.90;;;;;;20676217;28;20512;-73
2021/04/29 22:32:38;;;;;;;1.73;1.37;;;16.10;99.90;;;;;;20690388;28;20223;-73
2021/04/29 22:42:42;;;;;;;1.43;1.30;;;15.90;99.90;;;;;;20691862;28;20206;-74
2021/04/29 22:52:45;;;;;;;1.03;1.00;;;15.90;99.90;;;;;;20691389;28;20222;-73
2021/04/29 23:02:50;;;;;;;0.73;0.63;;;15.80;99.90;;;;;;20692140;28;20230;-74
2021/04/29 23:12:52;;;;;;;1.07;0.63;;;16.00;99.90;;;;;;20702877;28;20321;-73
2021/04/29 23:22:56;;;;;;;2.53;1.63;;;15.80;99.90;;;;;;20674360;28;20195;-73
2021/04/29 23:32:58;;;;;;;1.93;0.87;;;15.70;99.90;;;;;;20687069;28;20244;-76
2021/04/29 23:43:02;;;;;;;6.70;1.27;;;15.80;99.90;;;;;;20704388;28;20262;-73
2021/04/29 23:53:05;;;;;;;1.70;0.97;;;15.70;99.90;;;;;;20703907;28;20234;-73
